Don Mueang International Airport
VTBD : now visible

Airfield :











YOU CAN JOIN US ON...

 
LOGIN :

Register | Disclaimer

   EN    FR    IT 

 









Legend :    VFR   Marginal VFR   IFR   Intensive IFR   Very Intensive IFR
Visi :
Ceiling :
>= 8 km
>= 3000ft
5 to 8 km
1000 to 3000 ft
1500m to 5 km
500 to 1000 ft
800 to 1500m
200 to 500 ft
< 800m
< 200 ft
Symbols :   Thunderstorms  Fog  Heavy snow  Heavy precipitations  Wind > 20 kt







- Airport Elevation : 9 ft
- IATA code : DMK


VTBD - Don Mueang International

CURRENT METAR :
  • 191500Z 18007KT 160V220 9999 FEW030 28/23 Q1014 NOSIG

EXPIRED METARs :
  • 191430Z 18005KT 150V210 9999 FEW030 28/23 Q1014 NOSIG
  • 191400Z 19008KT 9999 FEW030 28/23 Q1014 NOSIG
  • 191330Z 18006KT 140V200 9999 FEW030 29/23 Q1013 NOSIG
  • 191300Z 17007KT 140V200 9999 FEW030 29/23 Q1013 NOSIG
  • 191230Z 17007KT 150V210 9999 FEW030 29/23 Q1013 NOSIG

TAF TAF VTBD
Valid from the 19 at 12:00 until the 20 at 18:00 UTC


191100Z 1912/2018 19008KT 9999 FEW020
BECMG 1922/1924 12005KT
BECMG 2002/2004 20008KT
VTBB FIR / Asia



MET'MAP, your aeronautical weather chart ! - Copyright ORBIFLY December 2007 - Disclaimer

ORBIFLY MET'MAP TEAM :

Programming & Development : Alexandra Zaïnal
Concept & Development : Baudouin d'Aumeries
Co-Development & Prog : Marc-Olivier Méhu
Technical & hardware support : Manuel Goepfert

Contact : metmap@orbifly.com




SOURCES & CREDITS :

   NOAA       Earth
Advisory